Time;durP1;ratioP1;P1;durP2;ratioP2;P2;SDS_P1;SDS_P2;PMS_P1;PMS_P2;Temp;Humidity;BMP_temperature;BMP_pressure;BME280_temperature;BME280_humidity;BME280_pressure;Samples;Min_cycle;Max_cycle;Signal;HPM_P1;HPM_P2
2021/07/03 00:01:23;;;;;;;13.03;9.30;;;17.70;99.90;;;;;;5067236;28;20594;-72
2021/07/03 00:03:50;;;;;;;11.27;9.00;;;17.60;99.90;;;;;;5067574;28;20207;-72
2021/07/03 00:06:16;;;;;;;9.63;8.63;;;17.60;99.90;;;;;;5067255;28;20293;-72
2021/07/03 00:08:44;;;;;;;9.67;8.77;;;17.70;99.90;;;;;;5068372;28;20235;-72
2021/07/03 00:11:12;;;;;;;12.50;9.50;;;17.70;99.90;;;;;;5071119;28;20287;-72
2021/07/03 00:13:39;;;;;;;9.90;8.90;;;17.70;99.90;;;;;;5070975;28;20219;-72
2021/07/03 00:16:06;;;;;;;10.83;9.73;;;17.80;99.90;;;;;;5071175;28;20313;-72
2021/07/03 00:18:33;;;;;;;13.47;10.03;;;17.80;99.90;;;;;;5071238;28;20203;-72
2021/07/03 00:21:00;;;;;;;14.07;8.83;;;17.80;99.90;;;;;;5070616;28;20688;-72
2021/07/03 00:23:27;;;;;;;10.83;9.60;;;17.80;99.90;;;;;;5075886;28;20253;-72
2021/07/03 00:25:53;;;;;;;13.93;10.60;;;17.70;99.90;;;;;;5072716;28;20309;-72
2021/07/03 00:28:21;;;;;;;11.23;10.00;;;17.60;99.90;;;;;;5070809;28;20203;-72
2021/07/03 00:30:48;;;;;;;10.63;9.60;;;17.50;99.90;;;;;;5070787;28;20261;-72
2021/07/03 00:33:14;;;;;;;13.30;10.00;;;17.60;99.90;;;;;;5070640;28;20199;-73
2021/07/03 00:35:41;;;;;;;10.70;9.20;;;17.70;99.90;;;;;;5070507;28;20904;-74
2021/07/03 00:38:08;;;;;;;12.50;10.97;;;17.80;99.90;;;;;;5070600;28;20203;-74
2021/07/03 00:40:34;;;;;;;12.33;10.33;;;17.60;99.90;;;;;;5070344;28;20219;-74
2021/07/03 00:43:01;;;;;;;10.67;9.57;;;17.70;99.90;;;;;;5070417;28;20203;-74
2021/07/03 00:45:30;;;;;;;11.33;10.20;;;17.90;99.90;;;;;;5070317;28;20272;-73
2021/07/03 00:47:57;;;;;;;12.10;10.20;;;17.90;99.90;;;;;;5070491;28;20239;-73
2021/07/03 00:50:24;;;;;;;12.27;11.03;;;17.90;99.90;;;;;;5069978;28;20204;-74
2021/07/03 00:52:50;;;;;;;12.07;10.90;;;18.00;99.90;;;;;;5070505;28;20199;-74
2021/07/03 00:55:17;;;;;;;12.50;11.20;;;17.80;99.90;;;;;;5069289;28;20254;-73
2021/07/03 00:57:46;;;;;;;11.70;10.50;;;17.90;99.90;;;;;;5070339;28;20204;-73
2021/07/03 01:00:14;;;;;;;12.33;10.93;;;18.00;99.90;;;;;;5070184;28;20212;-73
2021/07/03 01:02:42;;;;;;;12.43;11.13;;;18.00;99.90;;;;;;5069807;28;20235;-72
2021/07/03 01:05:09;;;;;;;13.27;10.77;;;18.10;99.90;;;;;;5069901;28;20472;-72
2021/07/03 01:07:36;;;;;;;12.00;10.80;;;18.10;99.90;;;;;;5069835;28;20204;-72
2021/07/03 01:10:04;;;;;;;12.10;10.87;;;18.10;99.90;;;;;;5069855;28;20235;-73
2021/07/03 01:12:31;;;;;;;12.03;10.80;;;18.10;99.90;;;;;;5070110;28;20211;-73
2021/07/03 01:14:59;;;;;;;12.47;11.17;;;18.00;99.90;;;;;;5069843;28;20207;-73
2021/07/03 01:17:25;;;;;;;16.27;11.70;;;17.80;99.90;;;;;;5069661;28;20230;-72
2021/07/03 01:19:54;;;;;;;12.60;10.80;;;17.70;99.90;;;;;;5070063;28;20245;-73
2021/07/03 01:22:21;;;;;;;13.13;11.03;;;17.80;99.90;;;;;;5069500;28;20218;-73
2021/07/03 01:24:48;;;;;;;12.80;11.60;;;17.80;99.90;;;;;;5069933;28;20212;-73
2021/07/03 01:27:15;;;;;;;13.20;11.10;;;17.70;99.90;;;;;;5069667;28;20268;-73
2021/07/03 01:29:42;;;;;;;16.13;11.33;;;17.60;99.90;;;;;;5069459;28;20654;-74
2021/07/03 01:32:09;;;;;;;12.77;10.60;;;17.60;99.90;;;;;;5069148;28;20212;-73
2021/07/03 01:34:36;;;;;;;12.57;11.07;;;17.70;99.90;;;;;;5069422;28;20264;-74
2021/07/03 01:37:04;;;;;;;15.57;11.53;;;17.70;99.90;;;;;;5069318;28;20272;-74
2021/07/03 01:39:32;;;;;;;12.37;11.17;;;17.70;99.90;;;;;;5069634;28;20234;-74
2021/07/03 01:41:59;;;;;;;13.27;11.93;;;17.80;99.90;;;;;;5069496;28;20231;-73
2021/07/03 01:44:27;;;;;;;14.60;12.23;;;17.70;99.90;;;;;;5069162;28;20207;-74
2021/07/03 01:46:55;;;;;;;14.83;12.20;;;17.80;99.90;;;;;;5069369;28;20267;-74
2021/07/03 01:49:22;;;;;;;14.37;12.93;;;17.80;99.90;;;;;;5069171;28;20749;-74
2021/07/03 01:51:50;;;;;;;16.87;12.87;;;17.80;99.90;;;;;;5069068;28;20735;-74
2021/07/03 01:54:17;;;;;;;13.80;11.90;;;17.80;99.90;;;;;;5069147;28;20261;-74
2021/07/03 01:56:57;;;;;;;15.40;12.73;;;17.80;99.90;;;;;;5069309;28;20200;-73
2021/07/03 01:59:24;;;;;;;15.83;12.63;;;17.80;99.90;;;;;;5068944;28;20191;-73
2021/07/03 02:01:51;;;;;;;15.43;12.20;;;17.60;99.90;;;;;;5068749;28;20239;-73
2021/07/03 02:04:17;;;;;;;14.53;13.13;;;17.70;99.90;;;;;;5068646;28;20678;-73
2021/07/03 02:06:44;;;;;;;14.77;12.60;;;17.60;99.90;;;;;;5068926;28;20228;-73
2021/07/03 02:09:11;;;;;;;14.30;12.80;;;17.60;99.90;;;;;;5068890;28;20264;-73
2021/07/03 02:11:37;;;;;;;14.53;12.47;;;17.60;99.90;;;;;;5068769;28;20222;-73
2021/07/03 02:14:05;;;;;;;14.63;12.63;;;17.70;99.90;;;;;;5068607;28;20207;-73
2021/07/03 02:16:32;;;;;;;14.73;13.13;;;17.70;99.90;;;;;;5068786;28;20227;-73
2021/07/03 02:18:59;;;;;;;18.97;13.13;;;17.70;99.90;;;;;;5068376;28;20708;-73
2021/07/03 02:21:26;;;;;;;14.57;13.07;;;17.60;99.90;;;;;;5068482;28;20207;-73
2021/07/03 02:23:53;;;;;;;14.10;12.70;;;17.60;99.90;;;;;;5068902;28;20215;-73
2021/07/03 02:26:19;;;;;;;14.03;12.40;;;17.60;99.90;;;;;;5068367;28;20276;-73
2021/07/03 02:28:46;;;;;;;14.33;12.60;;;17.60;99.90;;;;;;5068601;28;20352;-73
2021/07/03 02:31:14;;;;;;;14.33;12.30;;;17.60;99.90;;;;;;5068114;28;20272;-73
2021/07/03 02:33:40;;;;;;;14.43;13.07;;;17.60;99.90;;;;;;5068532;28;20212;-74
2021/07/03 02:36:07;;;;;;;15.17;13.47;;;17.60;99.90;;;;;;5068356;28;20233;-73
2021/07/03 02:38:34;;;;;;;16.33;12.97;;;17.60;99.90;;;;;;5068568;28;20651;-74
2021/07/03 02:41:01;;;;;;;15.80;12.67;;;17.60;99.90;;;;;;5068255;28;20288;-72
2021/07/03 02:43:27;;;;;;;13.83;12.43;;;17.60;99.90;;;;;;5068406;28;20219;-72
2021/07/03 02:45:54;;;;;;;14.57;12.73;;;17.60;99.90;;;;;;5068148;28;20692;-73
2021/07/03 02:48:22;;;;;;;14.60;13.10;;;17.60;99.90;;;;;;5068396;28;20352;-72
2021/07/03 02:50:48;;;;;;;14.73;13.20;;;17.60;99.90;;;;;;5068269;28;20621;-72
2021/07/03 02:53:15;;;;;;;15.47;13.40;;;17.60;99.90;;;;;;5068519;28;20253;-72
2021/07/03 02:55:42;;;;;;;15.40;13.80;;;17.50;99.90;;;;;;5068218;28;20207;-72
2021/07/03 02:58:09;;;;;;;16.17;13.57;;;17.10;99.90;;;;;;5068158;28;20256;-72
2021/07/03 03:00:36;;;;;;;18.97;14.67;;;17.20;99.90;;;;;;5067809;28;20243;-73
2021/07/03 03:03:02;;;;;;;16.67;14.23;;;17.10;99.90;;;;;;5068381;28;20304;-74
2021/07/03 03:05:30;;;;;;;20.80;15.50;;;17.00;99.90;;;;;;5067944;28;20204;-72
2021/07/03 03:07:57;;;;;;;16.93;13.77;;;16.90;99.90;;;;;;5068225;28;20207;-72
2021/07/03 03:10:24;;;;;;;17.57;14.70;;;16.90;99.90;;;;;;5068069;28;20607;-72
2021/07/03 03:12:50;;;;;;;17.90;14.50;;;16.80;99.90;;;;;;5068008;28;20211;-73
2021/07/03 03:15:18;;;;;;;17.73;13.83;;;16.90;99.90;;;;;;5067641;28;20652;-72
2021/07/03 03:17:45;;;;;;;16.50;14.27;;;17.00;99.90;;;;;;5068134;28;20581;-72
2021/07/03 03:20:12;;;;;;;18.73;14.77;;;17.00;99.90;;;;;;5068092;28;20212;-72
2021/07/03 03:22:41;;;;;;;17.47;13.53;;;17.10;99.90;;;;;;5068121;28;20289;-74
2021/07/03 03:25:09;;;;;;;16.20;14.57;;;17.20;99.90;;;;;;5067764;28;20276;-74
2021/07/03 03:27:36;;;;;;;18.13;14.20;;;17.10;99.90;;;;;;5067958;28;20641;-72
2021/07/03 03:30:05;;;;;;;17.17;13.50;;;17.20;99.90;;;;;;5067945;28;20204;-72
2021/07/03 03:32:32;;;;;;;16.80;14.27;;;17.30;99.90;;;;;;5068021;28;20204;-73
2021/07/03 03:34:59;;;;;;;15.57;13.97;;;17.30;99.90;;;;;;5067732;28;20207;-72
2021/07/03 03:37:25;;;;;;;15.93;14.07;;;17.10;99.90;;;;;;5067775;28;20215;-72
2021/07/03 03:39:53;;;;;;;15.70;14.10;;;17.20;99.90;;;;;;5067826;28;20626;-73
2021/07/03 03:42:20;;;;;;;16.40;14.70;;;17.20;99.90;;;;;;5067555;28;20277;-73
2021/07/03 03:44:46;;;;;;;19.23;14.63;;;17.20;99.90;;;;;;5070447;28;20280;-73
2021/07/03 03:47:13;;;;;;;18.80;14.93;;;17.20;99.90;;;;;;5071354;28;20227;-73
2021/07/03 03:49:40;;;;;;;17.57;15.13;;;17.20;99.90;;;;;;5071834;28;20204;-73
2021/07/03 03:52:09;;;;;;;15.17;13.67;;;17.20;99.90;;;;;;5071657;28;20261;-73
2021/07/03 03:54:35;;;;;;;17.40;15.50;;;17.30;99.90;;;;;;5071085;28;20562;-73
2021/07/03 03:57:23;;;;;;;16.90;15.10;;;17.30;99.90;;;;;;5071087;28;20679;-73
2021/07/03 03:59:51;;;;;;;17.77;14.83;;;17.30;99.90;;;;;;5071394;28;20199;-73
2021/07/03 04:02:17;;;;;;;18.17;15.07;;;17.40;99.90;;;;;;5070927;28;20235;-73
2021/07/03 04:04:44;;;;;;;16.57;14.30;;;17.40;99.90;;;;;;5071319;28;20294;-73
2021/07/03 04:07:11;;;;;;;17.67;14.97;;;17.30;99.90;;;;;;5071220;28;20239;-73
2021/07/03 04:09:38;;;;;;;19.33;15.47;;;17.30;99.90;;;;;;5071154;28;20730;-73
2021/07/03 04:12:06;;;;;;;16.20;14.50;;;17.40;99.90;;;;;;5071326;28;20246;-72
2021/07/03 04:14:33;;;;;;;16.73;15.03;;;17.40;99.90;;;;;;5070726;28;20653;-72
2021/07/03 04:16:59;;;;;;;17.27;14.67;;;17.50;99.90;;;;;;5071130;28;20296;-72
2021/07/03 04:19:26;;;;;;;18.13;14.90;;;17.50;99.90;;;;;;5070770;28;20701;-72
2021/07/03 04:21:53;;;;;;;17.07;15.00;;;17.50;99.90;;;;;;5070714;28;20624;-72
2021/07/03 04:24:19;;;;;;;18.83;14.30;;;17.50;99.90;;;;;;5070548;28;20264;-72
2021/07/03 04:26:46;;;;;;;16.83;15.03;;;17.40;99.90;;;;;;5070853;28;20285;-73
2021/07/03 04:29:14;;;;;;;20.73;14.73;;;17.40;99.90;;;;;;5070590;28;20204;-74
2021/07/03 04:31:41;;;;;;;18.17;16.10;;;17.20;99.90;;;;;;5070936;28;20243;-74
2021/07/03 04:34:07;;;;;;;20.23;16.30;;;17.20;99.90;;;;;;5070785;28;20264;-74
2021/07/03 04:36:34;;;;;;;20.87;16.27;;;17.00;99.90;;;;;;5070746;28;20261;-74
2021/07/03 04:39:01;;;;;;;17.97;16.20;;;16.80;99.90;;;;;;5070772;28;20207;-73
2021/07/03 04:41:28;;;;;;;19.20;15.53;;;16.90;99.90;;;;;;5070304;28;20267;-74
2021/07/03 04:43:55;;;;;;;18.60;15.67;;;16.80;99.90;;;;;;5070628;28;20238;-74
2021/07/03 04:46:22;;;;;;;18.97;15.60;;;16.70;99.90;;;;;;5070248;28;20231;-74
2021/07/03 04:48:49;;;;;;;19.63;16.20;;;16.80;99.90;;;;;;5070578;28;20208;-74
2021/07/03 04:51:16;;;;;;;20.53;16.20;;;16.80;99.90;;;;;;5070406;28;20207;-74
2021/07/03 04:53:42;;;;;;;19.93;16.57;;;16.90;99.90;;;;;;5070401;28;20207;-73
2021/07/03 04:56:09;;;;;;;16.73;14.57;;;16.90;99.90;;;;;;5070142;28;20207;-73
2021/07/03 04:58:36;;;;;;;17.70;15.17;;;16.90;99.90;;;;;;5070453;28;20282;-73
2021/07/03 05:01:02;;;;;;;17.90;15.33;;;16.90;99.90;;;;;;5070016;28;20235;-73
2021/07/03 05:03:30;;;;;;;18.33;15.63;;;16.90;99.90;;;;;;5070287;28;20200;-73
2021/07/03 05:05:57;;;;;;;20.13;15.83;;;16.90;99.90;;;;;;5070230;28;20602;-73
2021/07/03 05:08:24;;;;;;;18.60;15.77;;;16.80;99.90;;;;;;5070037;28;20563;-73
2021/07/03 05:10:50;;;;;;;19.10;17.03;;;16.80;99.90;;;;;;5069870;28;20216;-73
2021/07/03 05:13:17;;;;;;;18.77;16.40;;;16.70;99.90;;;;;;5069806;28;20235;-73
2021/07/03 05:15:44;;;;;;;21.50;17.37;;;16.70;99.90;;;;;;5070110;28;20231;-73
2021/07/03 05:18:10;;;;;;;22.03;17.03;;;16.70;99.90;;;;;;5069601;28;20223;-73
2021/07/03 05:20:38;;;;;;;18.80;15.03;;;16.70;99.90;;;;;;5070003;28;20214;-73
2021/07/03 05:23:05;;;;;;;17.83;15.83;;;16.80;99.90;;;;;;5070025;28;20204;-72
2021/07/03 05:25:32;;;;;;;19.30;16.10;;;16.90;99.90;;;;;;5069725;28;20771;-73
2021/07/03 05:27:58;;;;;;;19.40;16.33;;;17.00;99.90;;;;;;5069450;28;20802;-73
2021/07/03 05:30:25;;;;;;;19.53;15.83;;;17.00;99.90;;;;;;5069511;28;20257;-73
2021/07/03 05:32:51;;;;;;;18.53;16.37;;;17.10;99.90;;;;;;5069488;28;20813;-73
2021/07/03 05:35:18;;;;;;;17.27;15.43;;;17.00;99.90;;;;;;5069321;28;20567;-73
2021/07/03 05:37:46;;;;;;;18.33;16.27;;;17.00;99.90;;;;;;5069422;28;20261;-73
2021/07/03 05:40:16;;;;;;;22.00;16.37;;;16.90;99.90;;;;;;5069686;28;20254;-73
2021/07/03 05:42:42;;;;;;;19.60;16.63;;;17.00;99.90;;;;;;5069373;28;20372;-73
2021/07/03 05:45:14;;;;;;;19.63;16.60;;;17.00;99.90;;;;;;5069510;28;20239;-74
2021/07/03 05:47:40;;;;;;;18.37;15.10;;;17.00;99.90;;;;;;5068706;28;20961;-71
2021/07/03 05:50:08;;;;;;;21.27;15.93;;;17.00;99.90;;;;;;5080074;28;20661;-72
2021/07/03 05:52:35;;;;;;;20.73;16.57;;;17.10;99.90;;;;;;5080712;28;20207;-72
2021/07/03 05:55:03;;;;;;;18.83;16.53;;;17.20;99.90;;;;;;5075161;28;20721;-73
2021/07/03 05:57:30;;;;;;;21.63;16.10;;;17.20;99.90;;;;;;5077665;28;20231;-73
2021/07/03 05:59:56;;;;;;;19.97;16.40;;;17.20;99.90;;;;;;5078680;28;20561;-74
2021/07/03 06:02:23;;;;;;;17.90;14.50;;;17.30;99.90;;;;;;5078975;28;20284;-73
2021/07/03 06:04:52;;;;;;;16.00;14.20;;;17.50;99.90;;;;;;5077129;28;20198;-73
2021/07/03 06:07:18;;;;;;;16.00;13.70;;;17.60;99.90;;;;;;5077717;28;20215;-73
2021/07/03 06:09:45;;;;;;;15.20;13.63;;;17.60;99.90;;;;;;5081193;28;20693;-72
2021/07/03 06:12:13;;;;;;;18.97;14.83;;;17.70;99.90;;;;;;5073806;28;20199;-72
2021/07/03 06:14:39;;;;;;;15.37;13.73;;;17.70;99.90;;;;;;5075636;28;20592;-73
2021/07/03 06:17:06;;;;;;;17.60;13.20;;;17.70;99.90;;;;;;5077043;28;20215;-74
2021/07/03 06:19:33;;;;;;;16.50;14.67;;;17.70;99.90;;;;;;5066679;28;20319;-73
2021/07/03 06:21:59;;;;;;;17.00;14.47;;;17.80;99.90;;;;;;5066945;28;20230;-73
2021/07/03 06:24:26;;;;;;;20.67;14.77;;;17.80;99.90;;;;;;5069148;28;20681;-73
2021/07/03 06:26:52;;;;;;;15.77;14.07;;;17.80;99.90;;;;;;5066590;28;20227;-73
2021/07/03 06:29:20;;;;;;;18.67;14.13;;;17.90;99.90;;;;;;5066378;28;20304;-73
2021/07/03 06:31:47;;;;;;;17.77;15.10;;;17.90;99.90;;;;;;5066356;28;20681;-75
2021/07/03 06:34:13;;;;;;;19.67;15.23;;;17.90;99.90;;;;;;5066310;28;20213;-77
2021/07/03 06:36:40;;;;;;;17.77;15.37;;;18.00;99.90;;;;;;5066077;28;20300;-75
2021/07/03 06:39:07;;;;;;;15.77;13.70;;;17.90;99.90;;;;;;5066284;28;20208;-75
2021/07/03 06:41:34;;;;;;;16.80;15.03;;;18.00;99.90;;;;;;5071222;28;20252;-75
2021/07/03 06:44:00;;;;;;;14.90;13.37;;;18.00;99.90;;;;;;5076827;28;20524;-76
2021/07/03 06:46:29;;;;;;;19.17;14.97;;;18.10;99.90;;;;;;5075786;28;20261;-76
2021/07/03 06:48:56;;;;;;;15.90;14.23;;;18.20;99.90;;;;;;5074533;28;20213;-76
2021/07/03 06:51:23;;;;;;;16.40;14.00;;;18.20;99.90;;;;;;5076562;28;20657;-75
2021/07/03 06:53:49;;;;;;;15.17;13.07;;;18.20;99.90;;;;;;5075606;28;20614;-75
2021/07/03 06:56:16;;;;;;;17.07;13.40;;;18.30;99.90;;;;;;5066255;28;20254;-75
2021/07/03 06:58:43;;;;;;;14.97;13.37;;;18.30;99.90;;;;;;5066047;28;20219;-75
2021/07/03 07:01:09;;;;;;;15.90;12.40;;;18.40;99.90;;;;;;5065677;28;20243;-76
2021/07/03 07:03:37;;;;;;;14.30;12.33;;;18.50;99.90;;;;;;5066609;28;20261;-75
2021/07/03 07:06:04;;;;;;;16.37;14.10;;;18.50;99.90;;;;;;5066837;28;20265;-75
2021/07/03 07:08:30;;;;;;;14.83;13.17;;;18.50;99.90;;;;;;5066248;28;20235;-77
2021/07/03 07:10:57;;;;;;;14.63;13.10;;;18.50;99.90;;;;;;5065787;28;20736;-76
2021/07/03 07:13:24;;;;;;;14.73;12.23;;;18.50;99.90;;;;;;5073771;28;20199;-76
2021/07/03 07:15:50;;;;;;;16.33;12.63;;;18.70;99.90;;;;;;5075295;28;20720;-76
2021/07/03 07:18:17;;;;;;;15.70;12.30;;;18.80;99.90;;;;;;5078361;28;20219;-76
2021/07/03 07:20:45;;;;;;;15.33;12.90;;;18.80;99.90;;;;;;5089855;28;20796;-76
2021/07/03 07:23:11;;;;;;;13.30;11.90;;;18.80;99.90;;;;;;5089958;28;20199;-76
2021/07/03 07:25:38;;;;;;;14.30;11.20;;;18.80;99.90;;;;;;5089619;28;21130;-75
2021/07/03 07:28:05;;;;;;;15.43;12.83;;;18.80;99.90;;;;;;5089970;28;20601;-75
2021/07/03 07:30:32;;;;;;;16.57;12.50;;;18.80;99.90;;;;;;5089735;28;20623;-76
2021/07/03 07:32:58;;;;;;;14.10;12.50;;;18.90;99.90;;;;;;5088618;28;20352;-75
2021/07/03 07:35:25;;;;;;;15.90;12.90;;;18.90;99.90;;;;;;5084371;28;20211;-75
2021/07/03 07:37:54;;;;;;;13.93;12.57;;;19.00;99.90;;;;;;5089396;28;20672;-75
2021/07/03 07:40:21;;;;;;;15.63;13.50;;;19.00;99.90;;;;;;5090044;28;20256;-75
2021/07/03 07:42:48;;;;;;;12.90;11.63;;;19.10;99.90;;;;;;5089961;28;20238;-76
2021/07/03 07:45:15;;;;;;;13.70;11.50;;;19.20;99.90;;;;;;5090504;28;20202;-76
2021/07/03 07:47:41;;;;;;;11.33;10.23;;;19.30;99.90;;;;;;5081002;28;20287;-75
2021/07/03 07:50:09;;;;;;;13.97;11.10;;;19.40;99.90;;;;;;5087974;28;20661;-76
2021/07/03 07:52:36;;;;;;;12.10;10.30;;;19.50;99.90;;;;;;5091713;28;20264;-76
2021/07/03 07:55:05;;;;;;;12.43;10.53;;;19.50;99.90;;;;;;5091134;28;20206;-76
2021/07/03 07:57:32;;;;;;;12.97;10.13;;;19.50;99.90;;;;;;5091075;28;20433;-75
2021/07/03 07:59:58;;;;;;;10.83;9.83;;;19.50;99.90;;;;;;5091518;28;20619;-78
2021/07/03 08:02:25;;;;;;;13.00;11.70;;;19.40;99.90;;;;;;5091285;28;20239;-75
2021/07/03 08:04:52;;;;;;;12.07;9.60;;;19.40;99.90;;;;;;5091455;28;20652;-75
2021/07/03 08:07:18;;;;;;;12.33;10.53;;;19.40;99.90;;;;;;5091360;28;20230;-76
2021/07/03 08:09:45;;;;;;;10.93;9.80;;;19.60;99.90;;;;;;5091373;28;20207;-75
2021/07/03 08:12:13;;;;;;;13.17;10.03;;;19.60;99.90;;;;;;5091326;28;20207;-75
2021/07/03 08:14:40;;;;;;;11.77;9.93;;;19.60;99.90;;;;;;5090906;28;20223;-76
2021/07/03 08:17:07;;;;;;;12.43;11.23;;;19.60;99.90;;;;;;5091167;28;20213;-76
2021/07/03 08:19:35;;;;;;;11.50;10.33;;;19.60;99.90;;;;;;5090698;28;20735;-76
2021/07/03 08:22:01;;;;;;;13.83;11.90;;;19.60;99.90;;;;;;5090974;28;20625;-76
2021/07/03 08:24:28;;;;;;;11.03;9.93;;;19.70;99.90;;;;;;5090942;28;20776;-75
2021/07/03 08:26:55;;;;;;;11.57;10.37;;;19.90;99.90;;;;;;5090759;28;20672;-75
2021/07/03 08:29:23;;;;;;;14.83;11.10;;;20.00;99.90;;;;;;5090233;28;20261;-75
2021/07/03 08:31:49;;;;;;;11.37;10.30;;;20.10;99.90;;;;;;5090728;28;20202;-75
2021/07/03 08:34:16;;;;;;;10.97;9.93;;;20.10;99.90;;;;;;5091166;28;20203;-75
2021/07/03 08:36:43;;;;;;;13.43;10.10;;;20.20;99.90;;;;;;5090567;28;20897;-76
2021/07/03 08:39:09;;;;;;;11.90;10.70;;;20.20;99.90;;;;;;5090941;28;20284;-75
2021/07/03 08:41:38;;;;;;;13.77;11.07;;;20.20;99.90;;;;;;5090343;28;20669;-75
2021/07/03 08:44:05;;;;;;;12.80;11.00;;;20.10;99.90;;;;;;5090835;28;20199;-75
2021/07/03 08:46:33;;;;;;;14.43;10.30;;;19.90;99.90;;;;;;5090681;28;20203;-76
2021/07/03 08:49:02;;;;;;;12.97;10.97;;;20.00;99.90;;;;;;5090455;28;20276;-76
2021/07/03 08:51:29;;;;;;;11.10;10.00;;;20.10;99.90;;;;;;5090289;28;20207;-75
2021/07/03 08:53:56;;;;;;;12.83;10.70;;;20.20;99.90;;;;;;5090061;28;20206;-75
2021/07/03 08:56:22;;;;;;;15.50;12.57;;;20.30;99.90;;;;;;5090488;28;20206;-75
2021/07/03 08:58:49;;;;;;;12.80;11.50;;;20.30;99.90;;;;;;5090286;28;20232;-75
2021/07/03 09:01:15;;;;;;;10.13;9.13;;;20.40;99.90;;;;;;5090301;28;20227;-75
2021/07/03 09:03:53;;;;;;;10.37;8.63;;;20.50;99.90;;;;;;5090336;28;20211;-76
2021/07/03 09:06:30;;;;;;;12.83;10.07;;;20.60;99.90;;;;;;5090621;28;20191;-75
2021/07/03 09:08:57;;;;;;;10.60;9.50;;;20.70;99.90;;;;;;5075656;28;20588;-75
2021/07/03 09:11:24;;;;;;;11.83;10.27;;;20.70;99.90;;;;;;5070090;28;20241;-75
2021/07/03 09:13:59;;;;;;;11.93;10.00;;;20.70;99.90;;;;;;5069804;28;20203;-75
2021/07/03 09:16:31;;;;;;;11.63;10.50;;;20.60;99.90;;;;;;5079603;28;20191;-75
2021/07/03 09:19:00;;;;;;;10.20;9.27;;;20.60;99.90;;;;;;5088564;28;20264;-75
2021/07/03 09:21:27;;;;;;;12.47;8.90;;;20.80;99.90;;;;;;5074036;28;20208;-75
2021/07/03 09:23:54;;;;;;;10.67;9.57;;;21.00;99.90;;;;;;5089770;28;20660;-75
2021/07/03 09:26:21;;;;;;;15.87;11.60;;;21.10;99.90;;;;;;5077207;28;20257;-75
2021/07/03 09:28:49;;;;;;;11.43;10.30;;;21.00;99.90;;;;;;5069507;28;20239;-75
2021/07/03 09:31:17;;;;;;;10.93;9.77;;;20.80;99.90;;;;;;5077726;28;20211;-75
2021/07/03 09:33:46;;;;;;;9.33;8.53;;;20.60;99.90;;;;;;5089075;28;20691;-75
2021/07/03 09:36:22;;;;;;;9.73;7.73;;;20.80;99.90;;;;;;5089390;28;20742;-75
2021/07/03 09:38:50;;;;;;;8.97;8.00;;;21.00;99.90;;;;;;5089531;28;20721;-75
2021/07/03 09:41:18;;;;;;;11.77;9.77;;;21.20;99.90;;;;;;5088577;28;20233;-75
2021/07/03 09:43:59;;;;;;;8.60;7.60;;;21.20;99.90;;;;;;5089590;28;20206;-74
2021/07/03 09:46:28;;;;;;;8.43;7.73;;;21.20;99.90;;;;;;5087999;28;20234;-75
2021/07/03 09:48:56;;;;;;;9.90;7.73;;;21.40;99.90;;;;;;5068643;28;20704;-76
2021/07/03 09:51:29;;;;;;;7.43;6.83;;;21.40;99.90;;;;;;5068921;28;20234;-75
2021/07/03 09:53:56;;;;;;;11.23;6.97;;;21.40;99.90;;;;;;5068831;28;20207;-76
2021/07/03 09:56:23;;;;;;;7.33;6.37;;;21.40;99.90;;;;;;5069107;28;20215;-75
2021/07/03 09:58:50;;;;;;;6.57;5.90;;;21.30;99.90;;;;;;5069031;28;20207;-75
2021/07/03 10:01:17;;;;;;;7.03;6.43;;;21.20;99.90;;;;;;5069042;28;20231;-75
2021/07/03 10:03:44;;;;;;;6.77;6.27;;;21.40;99.90;;;;;;5069115;28;20269;-75
2021/07/03 10:06:15;;;;;;;9.07;6.70;;;21.50;99.90;;;;;;5068796;28;20207;-75
2021/07/03 10:08:45;;;;;;;6.80;6.10;;;21.70;99.90;;;;;;5068573;28;20225;-75
2021/07/03 10:11:17;;;;;;;6.53;5.90;;;22.00;99.90;;;;;;5069122;28;20196;-75
2021/07/03 10:13:45;;;;;;;6.77;6.17;;;22.20;99.90;;;;;;5068418;28;20204;-75
2021/07/03 10:16:13;;;;;;;7.00;6.30;;;22.40;99.90;;;;;;5068824;28;20603;-75
2021/07/03 10:18:41;;;;;;;7.30;6.70;;;22.40;99.90;;;;;;5068001;28;20231;-75
2021/07/03 10:21:09;;;;;;;7.33;6.50;;;22.40;99.90;;;;;;5068434;28;20211;-76
2021/07/03 10:23:38;;;;;;;7.30;6.73;;;22.30;99.90;;;;;;5068290;28;20207;-75
2021/07/03 10:26:06;;;;;;;8.43;7.50;;;22.40;99.90;;;;;;5068697;28;20233;-76
2021/07/03 10:28:34;;;;;;;7.23;6.53;;;22.30;99.90;;;;;;5068322;28;20227;-76
2021/07/03 10:31:08;;;;;;;7.53;6.90;;;22.20;99.90;;;;;;5068766;28;20222;-76
2021/07/03 10:33:43;;;;;;;7.73;6.90;;;22.10;99.90;;;;;;5068526;28;20223;-75
2021/07/03 10:36:10;;;;;;;7.33;6.60;;;22.10;99.90;;;;;;5068699;28;20211;-75
2021/07/03 10:38:42;;;;;;;6.40;5.60;;;22.20;99.90;;;;;;5068653;28;20211;-75
2021/07/03 10:41:18;;;;;;;7.73;7.00;;;22.30;99.90;;;;;;5068457;28;20211;-75
2021/07/03 10:43:46;;;;;;;6.27;5.77;;;22.40;99.90;;;;;;5073144;28;20213;-75
2021/07/03 10:46:24;;;;;;;6.67;5.97;;;22.40;99.90;;;;;;5079014;28;20194;-76
2021/07/03 10:48:55;;;;;;;9.53;6.80;;;22.40;99.90;;;;;;5075633;28;20222;-76
2021/07/03 10:51:31;;;;;;;10.13;6.83;;;22.20;99.90;;;;;;5066541;28;20301;-76
2021/07/03 10:54:10;;;;;;;7.07;6.40;;;22.10;99.90;;;;;;5065914;28;20233;-76
2021/07/03 10:56:47;;;;;;;7.40;6.70;;;22.10;99.90;;;;;;5067139;28;20249;-76
2021/07/03 10:59:16;;;;;;;8.13;6.07;;;22.00;99.90;;;;;;5066068;28;20324;-77
2021/07/03 11:01:43;;;;;;;12.93;10.10;;;22.00;99.90;;;;;;5065543;28;20247;-76
2021/07/03 11:04:25;;;;;;;6.30;5.70;;;22.10;99.90;;;;;;5065682;28;20211;-77
2021/07/03 11:06:54;;;;;;;5.87;5.27;;;22.10;99.90;;;;;;5065969;28;20235;-77
2021/07/03 11:09:23;;;;;;;6.77;6.00;;;22.20;99.90;;;;;;5066097;28;20238;-76
2021/07/03 11:11:50;;;;;;;6.67;6.17;;;22.10;99.90;;;;;;5066120;28;20234;-76
2021/07/03 11:14:18;;;;;;;10.10;5.73;;;22.10;99.90;;;;;;5064869;28;20740;-77
2021/07/03 11:16:50;;;;;;;7.33;6.73;;;22.10;99.90;;;;;;5065105;28;20207;-76
2021/07/03 11:19:24;;;;;;;5.10;4.60;;;22.10;99.90;;;;;;5065798;28;20199;-77
2021/07/03 11:21:51;;;;;;;10.17;5.23;;;22.00;99.90;;;;;;5066062;28;20218;-76
2021/07/03 11:24:18;;;;;;;5.27;4.77;;;22.20;99.90;;;;;;5065499;28;20211;-76
2021/07/03 11:26:45;;;;;;;5.70;5.20;;;22.60;99.90;;;;;;5066258;28;20207;-75
2021/07/03 11:29:13;;;;;;;4.90;4.40;;;23.10;99.90;;;;;;5070116;28;20609;-75
2021/07/03 11:31:40;;;;;;;7.23;4.50;;;23.40;99.90;;;;;;5085781;28;20235;-74
2021/07/03 11:34:06;;;;;;;5.40;4.80;;;23.50;99.90;;;;;;5084923;28;20594;-75
2021/07/03 11:36:33;;;;;;;5.97;5.47;;;23.50;99.90;;;;;;5076353;28;20676;-75
2021/07/03 11:39:00;;;;;;;6.80;5.47;;;23.40;99.90;;;;;;5077757;28;20223;-75
2021/07/03 11:41:28;;;;;;;5.13;4.73;;;23.40;99.90;;;;;;5075261;28;20191;-74
2021/07/03 11:43:59;;;;;;;5.13;4.72;;;23.50;99.90;;;;;;5067536;28;20289;-74
2021/07/03 11:46:27;;;;;;;4.30;3.90;;;23.60;99.90;;;;;;5067689;28;20208;-74
2021/07/03 11:48:54;;;;;;;4.40;4.18;;;23.90;99.90;;;;;;5067229;28;20227;-74
2021/07/03 11:51:21;;;;;;;5.35;4.70;;;24.20;99.90;;;;;;5067718;28;20212;-74
2021/07/03 11:53:52;;;;;;;6.38;5.00;;;24.50;99.90;;;;;;5067534;28;20635;-76
2021/07/03 11:56:18;;;;;;;6.53;5.05;;;24.80;99.90;;;;;;5067639;28;20204;-76
2021/07/03 11:58:48;;;;;;;7.82;5.35;;;24.40;99.90;;;;;;5067240;28;20215;-75
2021/07/03 12:01:17;;;;;;;7.40;4.70;;;24.10;99.90;;;;;;5067647;28;20313;-74
2021/07/03 12:03:47;;;;;;;5.75;4.70;;;24.30;99.90;;;;;;5067438;28;20210;-75
2021/07/03 12:06:20;;;;;;;4.97;4.68;;;24.00;99.70;;;;;;5070714;28;20199;-74
2021/07/03 12:08:48;;;;;;;7.82;5.38;;;23.70;99.90;;;;;;5070788;28;20630;-74
2021/07/03 12:11:16;;;;;;;6.03;5.30;;;23.50;99.90;;;;;;5071111;28;20216;-74
2021/07/03 12:13:47;;;;;;;6.28;5.07;;;23.40;99.90;;;;;;5077876;28;20218;-74
2021/07/03 12:16:15;;;;;;;5.53;4.93;;;23.70;99.90;;;;;;5091249;28;20194;-74
2021/07/03 12:18:46;;;;;;;8.40;5.72;;;24.10;99.90;;;;;;5091223;28;20214;-74
2021/07/03 12:21:15;;;;;;;5.43;5.00;;;24.40;99.90;;;;;;5091484;28;20616;-75
2021/07/03 12:23:52;;;;;;;5.75;5.18;;;24.60;99.90;;;;;;5090945;28;20207;-75
2021/07/03 12:26:21;;;;;;;5.55;4.97;;;24.90;99.90;;;;;;5091207;28;20206;-75
2021/07/03 12:28:52;;;;;;;5.75;5.13;;;24.90;99.90;;;;;;5090841;28;20630;-74
2021/07/03 12:31:19;;;;;;;8.02;4.65;;;24.90;99.90;;;;;;5090647;28;20205;-75
2021/07/03 12:33:47;;;;;;;4.93;4.45;;;25.20;99.90;;;;;;5090778;28;20206;-74
2021/07/03 12:36:19;;;;;;;4.80;4.50;;;25.40;99.90;;;;;;5090359;28;20240;-75